Terminal Aerodrome Forecast
Issued by NWS

Home | Current Version | Previous Version | Text Only | Print | Product List | Glossary On
Versions: 1 2 3 4 5 6 7 8 9 10 11 12 13 14 15 16 17
215
FTPA31 PHFO 032320
TAFHNY
TAF
PHNY 032320Z 0400/0424 25007KT P6SM VCSH SCT015 BKN025
      TEMPO 0400/0404 6SM SHRA BR BKN010
     FM040400 VRB05KT P6SM VCSH SCT015 BKN025
     FM042000 17010KT P6SM VCSH SCT015 BKN035=

USA.gov is the U.S. government's official web portal to all federal, state and local government web resources and services.